Time;durP1;ratioP1;P1;durP2;ratioP2;P2;SDS_P1;SDS_P2;PMS_P1;PMS_P2;Temp;Humidity;BMP_temperature;BMP_pressure;BME280_temperature;BME280_humidity;BME280_pressure;Samples;Min_cycle;Max_cycle;Signal;HPM_P1;HPM_P2
2021/03/14 00:01:12;;;;;;;9.52;4.60;;;4.50;98.30;;;;;;4217623;28;20287;-79
2021/03/14 00:03:16;;;;;;;10.60;5.15;;;4.50;98.30;;;;;;4214035;28;20661;-80
2021/03/14 00:05:19;;;;;;;11.55;5.70;;;4.50;98.30;;;;;;4203691;28;20232;-79
2021/03/14 00:07:21;;;;;;;13.30;5.97;;;4.50;98.30;;;;;;4208999;28;20225;-79
2021/03/14 00:09:26;;;;;;;9.65;5.43;;;4.50;98.30;;;;;;4212796;28;20731;-79
2021/03/14 00:11:28;;;;;;;11.80;5.00;;;4.50;98.30;;;;;;4209480;28;20254;-79
2021/03/14 00:13:32;;;;;;;7.15;4.60;;;4.50;98.30;;;;;;4210590;28;20293;-80
2021/03/14 00:15:34;;;;;;;13.23;5.05;;;4.50;98.30;;;;;;4202222;28;20268;-79
2021/03/14 00:17:42;;;;;;;16.27;5.28;;;4.50;98.30;;;;;;4206445;28;20236;-79
2021/03/14 00:19:45;;;;;;;11.15;4.55;;;4.50;98.30;;;;;;4206466;28;20231;-80
2021/03/14 00:21:47;;;;;;;16.73;5.57;;;4.50;98.30;;;;;;4201358;28;20271;-79
2021/03/14 00:23:49;;;;;;;11.27;4.45;;;4.50;98.30;;;;;;4206154;28;20757;-80
2021/03/14 00:25:51;;;;;;;9.82;5.22;;;4.60;98.30;;;;;;4207792;28;20244;-79
2021/03/14 00:27:53;;;;;;;17.17;6.10;;;4.60;98.30;;;;;;4205845;28;20237;-80
2021/03/14 00:29:55;;;;;;;18.92;4.35;;;4.60;98.30;;;;;;4206752;28;20236;-80
2021/03/14 00:31:58;;;;;;;10.70;5.82;;;4.60;98.30;;;;;;4199254;28;20224;-80
2021/03/14 00:34:00;;;;;;;9.10;5.13;;;4.60;98.30;;;;;;4202218;28;20229;-79
2021/03/14 00:36:03;;;;;;;12.48;4.53;;;4.70;98.30;;;;;;4207255;28;20339;-80
2021/03/14 00:38:05;;;;;;;8.48;4.88;;;4.60;98.30;;;;;;4201830;28;20272;-80
2021/03/14 00:40:08;;;;;;;11.55;4.30;;;4.70;98.30;;;;;;4192221;28;20941;-80
2021/03/14 00:42:11;;;;;;;7.45;3.63;;;4.70;98.30;;;;;;4197802;28;20241;-80
2021/03/14 00:44:13;;;;;;;7.53;3.80;;;4.70;98.30;;;;;;4205058;28;20315;-79
2021/03/14 00:46:15;;;;;;;11.27;4.10;;;4.60;98.30;;;;;;4198040;28;20641;-80
2021/03/14 00:48:17;;;;;;;10.10;4.50;;;4.70;98.30;;;;;;4189003;28;20232;-80
2021/03/14 00:50:20;;;;;;;11.25;5.05;;;4.60;98.30;;;;;;4198440;28;20304;-80
2021/03/14 00:52:23;;;;;;;9.02;4.60;;;4.60;98.30;;;;;;4194717;28;20732;-80
2021/03/14 00:54:25;;;;;;;6.82;3.35;;;4.70;98.30;;;;;;4201322;28;20639;-80
2021/03/14 00:56:27;;;;;;;3.50;2.40;;;4.70;98.30;;;;;;4187699;28;20308;-80
2021/03/14 00:58:29;;;;;;;6.00;4.47;;;4.70;98.30;;;;;;4192535;28;20658;-80
2021/03/14 01:00:30;;;;;;;5.87;3.83;;;4.60;98.30;;;;;;4194740;28;20484;-80
2021/03/14 01:02:32;;;;;;;7.88;3.80;;;4.60;98.30;;;;;;4202383;28;20487;-80
2021/03/14 01:04:35;;;;;;;8.40;3.87;;;4.60;98.30;;;;;;4200975;28;20233;-80
2021/03/14 01:06:37;;;;;;;9.70;4.30;;;4.60;98.30;;;;;;4199543;28;20487;-80
2021/03/14 01:08:39;;;;;;;5.85;3.42;;;4.60;98.30;;;;;;4193553;28;20241;-80
2021/03/14 01:10:41;;;;;;;9.77;4.25;;;4.60;98.30;;;;;;4194072;28;20312;-80
2021/03/14 01:12:43;;;;;;;4.45;3.05;;;4.60;98.30;;;;;;4201655;28;20283;-80
2021/03/14 01:14:45;;;;;;;6.22;4.07;;;4.60;98.30;;;;;;4198405;28;20260;-80
2021/03/14 01:16:47;;;;;;;4.50;2.90;;;4.60;98.30;;;;;;4204570;28;20340;-80
2021/03/14 01:18:49;;;;;;;5.85;3.60;;;4.60;98.30;;;;;;4198804;28;20243;-80
2021/03/14 01:20:51;;;;;;;4.50;3.00;;;4.60;98.30;;;;;;4200297;28;20259;-79
2021/03/14 01:22:53;;;;;;;5.85;3.30;;;4.60;98.30;;;;;;4201681;28;20240;-80
2021/03/14 01:24:56;;;;;;;5.97;2.78;;;4.60;98.30;;;;;;4197688;28;20648;-80
2021/03/14 01:26:59;;;;;;;8.80;3.00;;;4.60;98.30;;;;;;4203620;28;20303;-80
2021/03/14 01:29:01;;;;;;;3.20;2.40;;;4.60;98.30;;;;;;4198561;28;20229;-80
2021/03/14 01:31:03;;;;;;;4.05;2.60;;;4.60;98.30;;;;;;4193390;28;20316;-80
2021/03/14 01:33:06;;;;;;;4.43;2.45;;;4.70;98.30;;;;;;4196005;28;20228;-80
2021/03/14 01:35:09;;;;;;;6.03;3.55;;;4.70;98.30;;;;;;4194369;28;20313;-80
2021/03/14 01:37:10;;;;;;;5.13;3.00;;;4.70;98.30;;;;;;4190411;28;20244;-80
2021/03/14 01:39:12;;;;;;;4.90;2.90;;;4.80;98.30;;;;;;4197632;28;20260;-80
2021/03/14 01:41:16;;;;;;;6.97;3.53;;;4.80;98.30;;;;;;4197392;28;20227;-80
2021/03/14 01:43:18;;;;;;;4.60;3.20;;;4.80;98.30;;;;;;4197615;28;20738;-80
2021/03/14 01:45:20;;;;;;;5.43;3.17;;;4.80;98.30;;;;;;4195112;28;20558;-80
2021/03/14 01:47:30;;;;;;;5.63;3.10;;;4.80;98.30;;;;;;4198515;28;20289;-80
2021/03/14 01:49:32;;;;;;;5.70;3.28;;;4.80;98.30;;;;;;4203681;28;20514;-80
2021/03/14 01:51:34;;;;;;;4.20;3.42;;;4.80;98.30;;;;;;4198708;28;20233;-80
2021/03/14 01:53:36;;;;;;;4.82;3.72;;;4.80;98.30;;;;;;4201722;28;20231;-80
2021/03/14 01:55:40;;;;;;;3.88;3.47;;;4.80;98.30;;;;;;4201105;28;20232;-80
2021/03/14 01:57:44;;;;;;;4.97;3.45;;;4.80;98.30;;;;;;4198696;28;20232;-80
2021/03/14 01:59:46;;;;;;;8.45;3.40;;;4.70;98.30;;;;;;4195215;28;20228;-80
2021/03/14 02:01:48;;;;;;;4.72;3.50;;;4.70;98.30;;;;;;4198904;28;20225;-80
2021/03/14 02:03:51;;;;;;;6.68;3.70;;;4.70;98.30;;;;;;4193272;28;20232;-80
2021/03/14 02:05:53;;;;;;;9.75;5.00;;;4.60;98.30;;;;;;4195303;28;20794;-80
2021/03/14 02:07:56;;;;;;;9.77;4.60;;;4.60;98.30;;;;;;4195201;28;20692;-80
2021/03/14 02:09:58;;;;;;;5.57;3.33;;;4.60;98.30;;;;;;4201794;28;20485;-80
2021/03/14 02:12:02;;;;;;;6.30;4.80;;;4.60;98.30;;;;;;4193145;28;20260;-80
2021/03/14 02:14:08;;;;;;;7.07;4.30;;;4.60;98.30;;;;;;4183870;28;20521;-79
2021/03/14 02:16:12;;;;;;;8.30;5.30;;;4.60;98.30;;;;;;4193476;28;20764;-80
2021/03/14 02:18:16;;;;;;;10.25;5.70;;;4.60;98.30;;;;;;4187414;28;20597;-80
2021/03/14 02:20:21;;;;;;;9.30;5.93;;;4.60;98.30;;;;;;4195295;28;20256;-79
2021/03/14 02:22:24;;;;;;;11.65;5.20;;;4.60;98.30;;;;;;4200785;28;20245;-80
2021/03/14 02:24:28;;;;;;;10.32;6.03;;;4.60;98.30;;;;;;4201572;28;20242;-80
2021/03/14 02:26:38;;;;;;;7.78;6.07;;;4.60;98.30;;;;;;4203046;28;21117;-79
2021/03/14 02:28:42;;;;;;;16.15;5.70;;;4.60;98.30;;;;;;4201674;28;20227;-79
2021/03/14 02:30:45;;;;;;;9.57;5.68;;;4.60;98.30;;;;;;4201229;28;20223;-80
2021/03/14 02:32:48;;;;;;;10.57;6.47;;;4.60;98.30;;;;;;4201233;28;20223;-79
2021/03/14 02:34:56;;;;;;;10.63;6.38;;;4.60;98.30;;;;;;4201293;28;20228;-80
2021/03/14 02:37:01;;;;;;;10.10;6.13;;;4.60;98.30;;;;;;4205786;28;20289;-79
2021/03/14 02:39:04;;;;;;;15.85;5.45;;;4.60;98.30;;;;;;4202105;28;20633;-79
2021/03/14 02:41:07;;;;;;;13.50;6.38;;;4.60;98.30;;;;;;4203368;28;20225;-80
2021/03/14 02:43:10;;;;;;;16.27;9.68;;;4.60;98.30;;;;;;4201608;28;20221;-79
2021/03/14 02:45:14;;;;;;;19.92;9.57;;;4.60;98.30;;;;;;4199735;28;20220;-80
2021/03/14 02:47:19;;;;;;;18.70;10.10;;;4.70;98.30;;;;;;4203057;28;20222;-80
2021/03/14 02:49:37;;;;;;;10.13;7.40;;;4.70;98.30;;;;;;4196054;28;20237;-79
2021/03/14 02:51:40;;;;;;;11.40;7.15;;;4.70;98.30;;;;;;4193019;28;20627;-79
2021/03/14 02:53:44;;;;;;;12.40;8.93;;;4.60;98.30;;;;;;4193326;28;20295;-80
2021/03/14 02:55:46;;;;;;;29.75;16.95;;;4.70;98.30;;;;;;4199932;28;20599;-80
2021/03/14 02:57:50;;;;;;;19.42;10.25;;;4.70;98.30;;;;;;4199048;28;20232;-79
2021/03/14 02:59:54;;;;;;;9.77;6.18;;;4.70;98.30;;;;;;4197638;28;20239;-80
2021/03/14 03:01:58;;;;;;;9.55;5.57;;;4.70;98.30;;;;;;4197681;28;20236;-79
2021/03/14 03:04:01;;;;;;;13.10;6.50;;;4.70;98.30;;;;;;4202029;28;20242;-79
2021/03/14 03:06:05;;;;;;;10.27;6.25;;;4.70;98.30;;;;;;4193108;28;20312;-79
2021/03/14 03:08:07;;;;;;;13.13;6.75;;;4.70;98.30;;;;;;4189648;28;20301;-80
2021/03/14 03:10:10;;;;;;;9.77;5.88;;;4.70;98.30;;;;;;4196593;28;20352;-80
2021/03/14 03:12:15;;;;;;;9.77;5.40;;;4.70;98.30;;;;;;4194712;28;20228;-79
2021/03/14 03:14:19;;;;;;;9.48;4.85;;;4.70;98.30;;;;;;4196949;28;20312;-79
2021/03/14 03:16:24;;;;;;;13.50;6.32;;;4.60;98.30;;;;;;4195076;28;20221;-79
2021/03/14 03:18:28;;;;;;;14.20;5.70;;;4.60;98.30;;;;;;4195676;28;20235;-79
2021/03/14 03:20:32;;;;;;;11.15;5.75;;;4.70;98.30;;;;;;4190039;28;20237;-79
2021/03/14 03:22:35;;;;;;;10.73;6.32;;;4.70;98.30;;;;;;4198627;28;20718;-80
2021/03/14 03:24:37;;;;;;;8.43;5.00;;;4.70;98.30;;;;;;4197137;28;20591;-79
2021/03/14 03:26:41;;;;;;;9.05;5.65;;;4.70;98.30;;;;;;4201179;28;20305;-79
2021/03/14 03:28:44;;;;;;;14.23;5.57;;;4.70;98.30;;;;;;4204879;28;20224;-79
2021/03/14 03:30:46;;;;;;;9.38;5.45;;;4.70;98.30;;;;;;4191400;28;20236;-79
2021/03/14 03:32:49;;;;;;;6.30;4.53;;;4.60;98.30;;;;;;4195653;28;20224;-79
2021/03/14 03:34:53;;;;;;;12.50;5.10;;;4.60;98.30;;;;;;4196042;28;20229;-80
2021/03/14 03:36:55;;;;;;;13.75;9.10;;;4.60;98.30;;;;;;4196293;28;20259;-79
2021/03/14 03:38:57;;;;;;;12.20;8.90;;;4.70;98.30;;;;;;4202919;28;20589;-80
2021/03/14 03:41:13;;;;;;;14.40;7.60;;;4.80;98.30;;;;;;4201175;28;20237;-80
2021/03/14 03:43:21;;;;;;;9.77;5.75;;;4.80;98.30;;;;;;4189706;28;20507;-79
2021/03/14 03:45:25;;;;;;;13.23;5.20;;;4.80;98.30;;;;;;4204683;28;20656;-79
2021/03/14 03:47:27;;;;;;;10.95;5.38;;;4.70;98.30;;;;;;4196425;28;20229;-79
2021/03/14 03:49:33;;;;;;;23.67;13.80;;;4.70;98.30;;;;;;4185999;28;20234;-80
2021/03/14 03:51:36;;;;;;;26.75;13.95;;;4.70;98.30;;;;;;4191603;28;20239;-80
2021/03/14 03:53:40;;;;;;;19.70;8.48;;;4.70;98.30;;;;;;4197672;28;20255;-80
2021/03/14 03:55:44;;;;;;;18.05;8.07;;;4.70;98.30;;;;;;4193195;28;20312;-79
2021/03/14 03:57:46;;;;;;;10.25;5.72;;;4.70;98.30;;;;;;4202742;28;20281;-80
2021/03/14 03:59:49;;;;;;;13.55;6.47;;;4.70;98.30;;;;;;4198376;28;20704;-80
2021/03/14 04:01:52;;;;;;;8.00;4.70;;;4.70;98.30;;;;;;4202170;28;20254;-80
2021/03/14 04:03:55;;;;;;;13.98;6.50;;;4.70;98.30;;;;;;4205252;28;20266;-80
2021/03/14 04:05:59;;;;;;;13.13;6.10;;;4.80;98.30;;;;;;4207353;28;20241;-80
2021/03/14 04:08:03;;;;;;;13.80;6.53;;;4.80;98.30;;;;;;4199156;28;20235;-80
2021/03/14 04:10:08;;;;;;;11.27;5.88;;;4.80;98.30;;;;;;4193973;28;20245;-80
2021/03/14 04:12:11;;;;;;;10.48;6.00;;;4.90;98.30;;;;;;4190200;28;20594;-80
2021/03/14 04:14:14;;;;;;;12.63;6.10;;;4.90;98.30;;;;;;4199317;28;20224;-80
2021/03/14 04:16:16;;;;;;;10.25;7.13;;;4.90;98.30;;;;;;4203947;28;20983;-79
2021/03/14 04:18:20;;;;;;;9.70;5.82;;;4.80;98.30;;;;;;4198468;28;20275;-79
2021/03/14 04:20:42;;;;;;;14.13;5.97;;;4.80;98.30;;;;;;4199128;28;20235;-79
2021/03/14 04:22:54;;;;;;;12.10;5.95;;;4.90;98.30;;;;;;4200666;28;20240;-79
2021/03/14 04:24:59;;;;;;;16.40;5.93;;;4.90;98.30;;;;;;4203352;28;20229;-79
2021/03/14 04:27:02;;;;;;;10.82;6.30;;;4.90;98.30;;;;;;4196123;28;20234;-79
2021/03/14 04:29:05;;;;;;;12.43;5.50;;;4.90;98.30;;;;;;4182700;28;20255;-79
2021/03/14 04:31:08;;;;;;;11.65;5.80;;;4.90;98.30;;;;;;4200228;28;20233;-80
2021/03/14 04:33:11;;;;;;;11.27;5.67;;;4.90;98.30;;;;;;4201688;28;20229;-79
2021/03/14 04:35:14;;;;;;;11.47;5.77;;;5.00;98.30;;;;;;4202808;28;20478;-79
2021/03/14 04:37:16;;;;;;;11.93;5.50;;;4.90;98.30;;;;;;4199976;28;20487;-79
2021/03/14 04:39:19;;;;;;;16.33;8.30;;;5.00;98.30;;;;;;4202016;28;21382;-79
2021/03/14 04:41:23;;;;;;;38.17;18.23;;;5.00;98.30;;;;;;4205597;28;20602;-79
2021/03/14 04:43:26;;;;;;;14.23;6.40;;;5.00;98.30;;;;;;4190245;28;20491;-80
2021/03/14 04:45:29;;;;;;;10.70;5.53;;;5.00;98.30;;;;;;4197549;28;20900;-80
2021/03/14 04:47:31;;;;;;;12.03;5.73;;;5.00;98.30;;;;;;4197555;28;20581;-80
2021/03/14 04:49:34;;;;;;;10.20;5.40;;;5.00;98.30;;;;;;4191380;28;21070;-79
2021/03/14 04:51:38;;;;;;;17.15;4.88;;;5.00;98.30;;;;;;4200439;28;20927;-79
2021/03/14 04:53:41;;;;;;;10.30;4.40;;;5.10;98.30;;;;;;4191438;28;20233;-80
2021/03/14 04:55:45;;;;;;;9.88;4.63;;;5.10;98.30;;;;;;4180287;28;20240;-79
2021/03/14 04:57:49;;;;;;;7.50;4.05;;;5.10;98.30;;;;;;4195352;28;20772;-79
2021/03/14 04:59:52;;;;;;;6.93;4.63;;;5.10;98.30;;;;;;4190097;28;20311;-79
2021/03/14 05:01:54;;;;;;;16.60;4.65;;;5.20;98.30;;;;;;4189636;28;20832;-79
2021/03/14 05:03:58;;;;;;;9.68;4.50;;;5.10;98.30;;;;;;4200973;28;20315;-80
2021/03/14 05:06:02;;;;;;;10.77;4.40;;;5.10;98.30;;;;;;4201492;28;20287;-79
2021/03/14 05:08:05;;;;;;;10.67;5.17;;;5.10;98.30;;;;;;4195416;28;20220;-79
2021/03/14 05:10:11;;;;;;;9.70;4.30;;;5.10;98.30;;;;;;4189173;28;20497;-79
2021/03/14 05:12:14;;;;;;;10.18;4.63;;;5.10;98.30;;;;;;4189920;28;20480;-79
2021/03/14 05:14:18;;;;;;;15.20;5.60;;;5.10;98.30;;;;;;4202257;28;20413;-80
2021/03/14 05:16:20;;;;;;;9.43;5.03;;;5.20;98.30;;;;;;4199421;28;20487;-80
2021/03/14 05:18:23;;;;;;;11.63;5.03;;;5.20;98.30;;;;;;4188566;28;20233;-79
2021/03/14 05:20:27;;;;;;;19.73;6.00;;;5.20;98.30;;;;;;4194365;28;20565;-80
2021/03/14 05:22:29;;;;;;;11.45;5.38;;;5.20;98.30;;;;;;4184444;28;20234;-79
2021/03/14 05:24:33;;;;;;;5.90;4.27;;;5.20;98.30;;;;;;4191902;28;20264;-79
2021/03/14 05:26:35;;;;;;;10.40;4.93;;;5.20;98.30;;;;;;4197026;28;20495;-79
2021/03/14 05:28:40;;;;;;;17.33;6.03;;;5.10;98.30;;;;;;4194372;28;21009;-79
2021/03/14 05:30:43;;;;;;;13.77;5.32;;;5.20;98.30;;;;;;4185848;28;20570;-79
2021/03/14 05:32:46;;;;;;;14.18;5.80;;;5.20;98.30;;;;;;4193190;28;20648;-80
2021/03/14 05:34:48;;;;;;;14.15;5.65;;;5.20;98.30;;;;;;4190428;28;20683;-79
2021/03/14 05:36:51;;;;;;;15.10;5.97;;;5.20;98.30;;;;;;4190583;28;20232;-79
2021/03/14 05:38:54;;;;;;;9.00;3.80;;;5.20;98.30;;;;;;4185791;28;20494;-79
2021/03/14 05:40:56;;;;;;;9.38;4.85;;;5.10;98.30;;;;;;4194008;28;20505;-79
2021/03/14 05:42:59;;;;;;;10.70;4.85;;;5.10;98.30;;;;;;4200247;28;20742;-79
2021/03/14 05:45:01;;;;;;;12.77;4.75;;;5.20;98.30;;;;;;4193542;28;20222;-79
2021/03/14 05:47:06;;;;;;;10.35;4.47;;;5.20;98.30;;;;;;4199392;28;20312;-80
2021/03/14 05:49:09;;;;;;;17.92;4.93;;;5.10;98.30;;;;;;4192763;28;20347;-80
2021/03/14 05:51:18;;;;;;;9.50;4.55;;;5.10;98.30;;;;;;4194341;28;20228;-79
2021/03/14 05:53:22;;;;;;;9.10;4.70;;;5.20;98.30;;;;;;4200474;28;20238;-79
2021/03/14 05:55:25;;;;;;;9.77;5.07;;;5.20;98.30;;;;;;4195812;28;20489;-79
2021/03/14 05:57:28;;;;;;;11.07;5.33;;;5.20;98.30;;;;;;4192255;28;20976;-79
2021/03/14 05:59:30;;;;;;;7.40;4.50;;;5.20;98.30;;;;;;4198170;28;20491;-80
2021/03/14 06:01:32;;;;;;;8.47;5.17;;;5.30;98.30;;;;;;4187787;28;20504;-79
2021/03/14 06:03:37;;;;;;;14.20;5.60;;;5.30;98.30;;;;;;4193809;28;20518;-80
2021/03/14 06:05:40;;;;;;;13.73;5.40;;;5.30;98.30;;;;;;4202879;28;20262;-79
2021/03/14 06:07:42;;;;;;;11.50;5.23;;;5.30;98.30;;;;;;4193962;28;20528;-79
2021/03/14 06:09:44;;;;;;;11.17;5.20;;;5.30;98.30;;;;;;4185468;28;20500;-79
2021/03/14 06:11:46;;;;;;;12.83;5.73;;;5.30;98.30;;;;;;4184933;28;20520;-79
2021/03/14 06:13:48;;;;;;;11.07;5.03;;;5.40;98.30;;;;;;4188895;28;20564;-79
2021/03/14 06:15:50;;;;;;;15.40;5.70;;;5.40;98.30;;;;;;4183764;28;21483;-79
2021/03/14 06:17:52;;;;;;;8.17;4.20;;;5.30;98.30;;;;;;4191276;28;20582;-79
2021/03/14 06:19:56;;;;;;;18.13;5.10;;;5.40;98.30;;;;;;4194629;28;21301;-80
2021/03/14 06:22:24;;;;;;;14.43;5.67;;;5.40;98.30;;;;;;4178627;28;20539;-79
2021/03/14 06:24:37;;;;;;;17.60;6.20;;;5.40;98.30;;;;;;4192106;28;20495;-80
2021/03/14 06:26:41;;;;;;;12.57;5.33;;;5.40;98.30;;;;;;4185500;28;20497;-79
2021/03/14 06:28:43;;;;;;;14.70;5.50;;;5.40;98.30;;;;;;4189738;28;20517;-79
2021/03/14 06:30:45;;;;;;;20.20;5.30;;;5.40;98.30;;;;;;4193734;28;20523;-79
2021/03/14 06:33:04;;;;;;;11.67;4.90;;;5.50;98.30;;;;;;4188519;28;20551;-79
2021/03/14 06:35:12;;;;;;;18.70;6.00;;;5.50;98.30;;;;;;4201482;28;20491;-79
2021/03/14 06:37:17;;;;;;;18.80;5.30;;;5.50;98.30;;;;;;4197022;28;22877;-79
2021/03/14 06:39:23;;;;;;;10.37;5.40;;;5.50;98.30;;;;;;4194622;28;20507;-79
2021/03/14 06:41:25;;;;;;;14.83;4.97;;;5.50;98.30;;;;;;4199656;28;20472;-80
2021/03/14 06:43:31;;;;;;;11.33;5.73;;;5.50;98.30;;;;;;4196439;28;20496;-80
2021/03/14 06:45:39;;;;;;;17.37;5.83;;;5.60;98.30;;;;;;4199421;28;20579;-79
2021/03/14 06:47:43;;;;;;;22.23;6.07;;;5.50;98.30;;;;;;4186306;28;20511;-79
2021/03/14 06:49:46;;;;;;;14.27;5.30;;;5.60;98.30;;;;;;4192493;28;20520;-80
2021/03/14 06:51:51;;;;;;;13.70;5.47;;;5.60;98.30;;;;;;4201904;28;20983;-79
2021/03/14 06:53:53;;;;;;;25.07;6.50;;;5.60;98.30;;;;;;4194098;28;20493;-79
2021/03/14 06:56:04;;;;;;;20.90;5.50;;;5.60;98.30;;;;;;4187610;28;20484;-79
2021/03/14 06:58:20;;;;;;;10.87;5.73;;;5.70;98.30;;;;;;4197682;28;20509;-79
2021/03/14 07:00:22;;;;;;;10.63;5.93;;;5.70;98.30;;;;;;4200162;28;20572;-79
2021/03/14 07:02:25;;;;;;;18.27;6.17;;;5.70;98.30;;;;;;4198192;28;20558;-80
2021/03/14 07:04:35;;;;;;;14.43;6.57;;;5.60;98.30;;;;;;4200767;28;20485;-79
2021/03/14 07:06:37;;;;;;;16.43;8.00;;;5.70;98.30;;;;;;4199190;28;20559;-79
2021/03/14 07:08:40;;;;;;;9.57;5.03;;;5.60;98.30;;;;;;4193203;28;20484;-79
2021/03/14 07:10:42;;;;;;;21.03;6.70;;;5.70;98.30;;;;;;4194700;28;20480;-80
2021/03/14 07:12:47;;;;;;;14.87;5.60;;;5.60;98.30;;;;;;4192864;28;20519;-80
2021/03/14 07:14:49;;;;;;;16.83;5.67;;;5.70;98.30;;;;;;4197622;28;20491;-79
2021/03/14 07:16:53;;;;;;;8.70;5.47;;;5.80;98.30;;;;;;4197607;28;20573;-79
2021/03/14 07:18:56;;;;;;;16.43;7.00;;;5.90;98.30;;;;;;4182559;28;20497;-79
2021/03/14 07:20:58;;;;;;;15.20;6.97;;;6.00;98.30;;;;;;4198279;28;20873;-79
2021/03/14 07:23:04;;;;;;;15.50;6.13;;;6.00;98.30;;;;;;4193988;28;20492;-80
2021/03/14 07:25:20;;;;;;;14.37;5.77;;;6.20;98.30;;;;;;4202632;28;20520;-79
2021/03/14 07:27:24;;;;;;;15.53;5.97;;;6.20;98.30;;;;;;4198082;28;20546;-79
2021/03/14 07:29:27;;;;;;;12.37;5.20;;;6.10;98.30;;;;;;4192579;28;20572;-79
2021/03/14 07:31:30;;;;;;;12.20;5.53;;;6.10;98.30;;;;;;4204471;28;20520;-80
2021/03/14 07:33:32;;;;;;;16.00;5.80;;;6.00;98.30;;;;;;4204895;28;20515;-80
2021/03/14 07:35:34;;;;;;;13.47;8.60;;;6.00;98.30;;;;;;4205763;28;20480;-80
2021/03/14 07:37:41;;;;;;;11.00;6.10;;;6.00;98.30;;;;;;4203086;28;20490;-79
2021/03/14 07:39:46;;;;;;;16.63;6.53;;;5.90;98.30;;;;;;4210405;28;20516;-79
2021/03/14 07:41:49;;;;;;;17.17;5.83;;;5.90;98.30;;;;;;4209638;28;20564;-79
2021/03/14 07:43:52;;;;;;;11.37;5.20;;;6.00;98.30;;;;;;4206977;28;20578;-79
2021/03/14 07:45:54;;;;;;;16.00;6.17;;;6.00;98.30;;;;;;4207010;28;20507;-79
2021/03/14 07:47:57;;;;;;;15.57;6.27;;;6.00;98.30;;;;;;4210423;28;20535;-79
2021/03/14 07:49:59;;;;;;;11.50;5.17;;;6.00;98.30;;;;;;4210128;28;20585;-79
2021/03/14 07:52:05;;;;;;;9.60;4.77;;;6.00;98.30;;;;;;4207281;28;20557;-79
2021/03/14 07:54:10;;;;;;;14.87;5.60;;;6.00;98.30;;;;;;4198083;28;20492;-79
2021/03/14 07:56:12;;;;;;;13.23;5.43;;;5.90;98.30;;;;;;4205755;28;20574;-79
2021/03/14 07:58:15;;;;;;;9.80;5.40;;;6.00;98.30;;;;;;4212083;28;20580;-79
2021/03/14 08:00:35;;;;;;;14.63;5.50;;;6.00;98.30;;;;;;4209952;28;20491;-79
2021/03/14 08:02:37;;;;;;;13.93;5.30;;;6.00;98.30;;;;;;4209390;28;20471;-79
2021/03/14 08:04:40;;;;;;;12.43;5.43;;;6.00;98.30;;;;;;4214507;28;20499;-79
2021/03/14 08:06:52;;;;;;;12.67;5.77;;;6.00;98.30;;;;;;4204716;28;20626;-79
2021/03/14 08:08:53;;;;;;;18.50;7.93;;;6.00;98.30;;;;;;4209634;28;20469;-79
2021/03/14 08:10:56;;;;;;;39.10;17.57;;;6.00;98.30;;;;;;4208268;28;20563;-80
2021/03/14 08:12:58;;;;;;;16.67;7.10;;;6.10;98.30;;;;;;4206616;28;20487;-79
2021/03/14 08:15:01;;;;;;;14.40;6.80;;;6.20;98.30;;;;;;4210800;28;20981;-79
2021/03/14 08:17:14;;;;;;;25.90;6.50;;;6.30;98.30;;;;;;4203229;28;20529;-79
2021/03/14 08:19:16;;;;;;;13.40;6.30;;;6.40;98.30;;;;;;4207992;28;20497;-79
2021/03/14 08:21:41;;;;;;;39.00;16.97;;;6.40;98.30;;;;;;4210894;28;20579;-80
2021/03/14 08:23:48;;;;;;;40.53;20.00;;;6.50;98.30;;;;;;4210448;28;21412;-81
2021/03/14 08:25:51;;;;;;;11.67;5.47;;;6.50;98.30;;;;;;4210899;28;21220;-79
2021/03/14 08:27:56;;;;;;;16.07;5.63;;;6.40;98.30;;;;;;4213147;28;20482;-79
2021/03/14 08:30:02;;;;;;;11.87;4.83;;;6.40;98.30;;;;;;4205035;28;20821;-79
2021/03/14 08:32:21;;;;;;;15.37;5.50;;;6.30;98.30;;;;;;4210708;28;20475;-79
2021/03/14 08:34:43;;;;;;;27.10;6.43;;;6.40;98.30;;;;;;4210792;28;20479;-79
2021/03/14 08:36:45;;;;;;;15.50;5.80;;;6.40;98.30;;;;;;4206163;28;20576;-79
2021/03/14 08:38:51;;;;;;;37.77;20.47;;;6.40;98.30;;;;;;4203979;28;20509;-78
2021/03/14 08:41:35;;;;;;;21.30;6.83;;;6.40;98.30;;;;;;4210905;28;20486;-78
2021/03/14 08:43:40;;;;;;;18.00;5.03;;;6.40;98.30;;;;;;4182510;28;20578;-79
2021/03/14 08:45:48;;;;;;;12.77;5.20;;;6.50;98.30;;;;;;4211283;28;20570;-79
2021/03/14 08:47:51;;;;;;;15.73;5.23;;;6.50;98.30;;;;;;4211217;28;20485;-79
2021/03/14 08:49:55;;;;;;;11.40;5.20;;;6.50;98.30;;;;;;4209389;28;20486;-79
2021/03/14 08:51:58;;;;;;;9.83;4.70;;;6.50;98.30;;;;;;4204552;28;20970;-79
2021/03/14 08:54:09;;;;;;;21.97;5.27;;;6.50;98.30;;;;;;4211800;28;20496;-79
2021/03/14 08:56:11;;;;;;;17.80;4.80;;;6.60;98.30;;;;;;4212113;28;20547;-79
2021/03/14 08:58:14;;;;;;;18.57;4.83;;;6.70;98.30;;;;;;4204702;28;20522;-78
2021/03/14 09:00:16;;;;;;;15.37;7.43;;;6.70;98.30;;;;;;4212361;28;20490;-79
2021/03/14 09:02:24;;;;;;;20.70;9.30;;;6.80;98.30;;;;;;4213625;28;20464;-79
2021/03/14 09:04:29;;;;;;;15.57;6.63;;;6.90;98.30;;;;;;4204601;28;20503;-79
2021/03/14 09:06:31;;;;;;;9.87;4.30;;;7.00;98.30;;;;;;4210840;28;21292;-78
2021/03/14 09:08:33;;;;;;;16.23;4.43;;;6.90;98.30;;;;;;4206357;28;20481;-78
2021/03/14 09:10:37;;;;;;;13.20;4.70;;;6.90;98.30;;;;;;4207492;28;20523;-78
2021/03/14 09:12:39;;;;;;;11.70;5.37;;;7.10;98.30;;;;;;4209340;28;20478;-79
2021/03/14 09:14:43;;;;;;;7.87;4.17;;;7.30;98.30;;;;;;4207850;28;20590;-78
2021/03/14 09:16:45;;;;;;;28.00;13.20;;;7.60;98.30;;;;;;4206993;28;20504;-79
2021/03/14 09:18:49;;;;;;;23.20;12.70;;;7.70;98.30;;;;;;4210063;28;20484;-79
2021/03/14 09:20:57;;;;;;;16.13;7.93;;;7.80;98.30;;;;;;4212280;28;20453;-79
2021/03/14 09:23:05;;;;;;;10.60;5.30;;;7.80;98.30;;;;;;4208860;28;20495;-79
2021/03/14 09:25:09;;;;;;;16.30;4.07;;;7.90;98.30;;;;;;4210131;28;20863;-79
2021/03/14 09:27:15;;;;;;;13.23;4.80;;;8.00;98.30;;;;;;4209878;28;20482;-79
2021/03/14 09:29:35;;;;;;;10.00;3.83;;;7.90;98.30;;;;;;4205991;28;20458;-79
2021/03/14 09:31:42;;;;;;;9.33;4.30;;;7.80;98.30;;;;;;4205654;28;20498;-81
2021/03/14 09:33:44;;;;;;;10.17;4.37;;;7.60;98.30;;;;;;4208220;28;20540;-78
2021/03/14 09:35:47;;;;;;;7.93;4.30;;;7.60;98.30;;;;;;4207129;28;20526;-78
2021/03/14 09:37:52;;;;;;;11.03;4.33;;;7.70;98.30;;;;;;4206249;28;20470;-78
2021/03/14 09:40:15;;;;;;;7.00;4.70;;;7.70;98.30;;;;;;4210290;28;20506;-79
2021/03/14 09:42:20;;;;;;;8.60;3.37;;;7.60;98.30;;;;;;4203374;28;20523;-79
2021/03/14 09:44:22;;;;;;;13.33;3.90;;;7.60;98.30;;;;;;4208245;28;21191;-79
2021/03/14 09:46:24;;;;;;;13.73;4.60;;;7.70;98.30;;;;;;4207932;28;20573;-79
2021/03/14 09:48:27;;;;;;;7.80;3.30;;;7.60;98.30;;;;;;4209313;28;20536;-79
2021/03/14 09:50:36;;;;;;;9.50;3.73;;;7.50;98.30;;;;;;4207646;28;20452;-79
2021/03/14 09:52:39;;;;;;;7.40;3.33;;;7.50;98.30;;;;;;4203309;28;20509;-79
2021/03/14 09:54:52;;;;;;;9.23;3.17;;;7.40;98.30;;;;;;4208604;28;21155;-79
2021/03/14 09:56:56;;;;;;;15.53;3.60;;;7.50;98.30;;;;;;4208925;28;20488;-79
2021/03/14 09:59:01;;;;;;;11.87;3.20;;;7.60;98.30;;;;;;4207057;28;20486;-79
2021/03/14 10:01:06;;;;;;;7.80;3.23;;;7.70;98.30;;;;;;4209155;28;20457;-79
2021/03/14 10:03:09;;;;;;;12.17;3.70;;;7.80;98.30;;;;;;4210288;28;20497;-79
2021/03/14 10:05:11;;;;;;;7.10;2.97;;;7.80;98.30;;;;;;4216149;28;20520;-79
2021/03/14 10:07:21;;;;;;;9.77;3.30;;;7.90;98.30;;;;;;4210207;28;20469;-79
2021/03/14 10:09:25;;;;;;;6.23;3.07;;;8.00;98.30;;;;;;4208284;28;20556;-79
2021/03/14 10:11:28;;;;;;;7.67;2.90;;;8.10;98.30;;;;;;4207227;28;20510;-79
2021/03/14 10:13:31;;;;;;;8.20;2.90;;;8.10;98.30;;;;;;4207584;28;20462;-79
2021/03/14 10:15:33;;;;;;;10.90;3.93;;;8.10;98.30;;;;;;4204666;28;21063;-79
2021/03/14 10:17:38;;;;;;;8.70;3.50;;;8.10;98.30;;;;;;4209360;28;20554;-79
2021/03/14 10:19:41;;;;;;;6.70;2.80;;;8.10;98.30;;;;;;4210757;28;21020;-79
2021/03/14 10:21:45;;;;;;;14.13;3.43;;;8.40;98.30;;;;;;4206078;28;20494;-79
2021/03/14 10:23:49;;;;;;;11.33;3.23;;;8.70;98.30;;;;;;4207969;28;20654;-79
2021/03/14 10:25:52;;;;;;;8.33;3.10;;;9.00;98.30;;;;;;4209752;28;20878;-79
2021/03/14 10:28:07;;;;;;;8.50;3.20;;;9.30;98.30;;;;;;4203615;28;20575;-79
2021/03/14 10:30:11;;;;;;;11.13;3.37;;;9.40;98.30;;;;;;4209235;28;21009;-79
2021/03/14 10:32:19;;;;;;;8.47;3.40;;;9.20;98.30;;;;;;4208956;28;20796;-79
2021/03/14 10:34:23;;;;;;;10.07;3.10;;;8.90;98.30;;;;;;4203084;28;20493;-79
2021/03/14 10:36:33;;;;;;;10.20;3.47;;;8.60;98.30;;;;;;4209799;28;21079;-79
2021/03/14 10:38:39;;;;;;;10.33;3.70;;;8.40;98.30;;;;;;4204196;28;20573;-79
2021/03/14 10:40:42;;;;;;;12.87;3.43;;;8.40;98.30;;;;;;4202924;28;20489;-79
2021/03/14 10:42:47;;;;;;;15.97;4.60;;;8.40;98.30;;;;;;4209452;28;20494;-79
2021/03/14 10:45:00;;;;;;;9.40;4.07;;;8.80;98.30;;;;;;4205989;28;20483;-79
2021/03/14 10:47:14;;;;;;;13.87;4.17;;;9.40;98.30;;;;;;4208879;28;20493;-79
2021/03/14 10:49:18;;;;;;;9.17;3.77;;;9.70;98.30;;;;;;4208553;28;20489;-79
2021/03/14 10:51:31;;;;;;;20.33;6.43;;;10.20;98.30;;;;;;4210192;28;20529;-80